Time;durP1;ratioP1;P1;durP2;ratioP2;P2;SDS_P1;SDS_P2;PMS_P1;PMS_P2;Temp;Humidity;BMP_temperature;BMP_pressure;BME280_temperature;BME280_humidity;BME280_pressure;Samples;Min_cycle;Max_cycle;Signal;HPM_P1;HPM_P2
2023/05/05 04:55:52;;;;;;;6.13;3.97;;;;;;;13.21;80.59;96686.16;2084665;28;20573;-61
2023/05/05 09:14:30;;;;;;;7.72;2.08;;;;;;;17.49;71.21;96755.31;2082550;28;20551;-61
2023/05/05 09:16:46;;;;;;;3.80;2.03;;;;;;;17.50;71.68;96746.44;2084157;27;20581;-60
2023/05/05 09:17:47;;;;;;;3.78;1.80;;;;;;;17.36;72.09;96753.53;2083176;28;20200;-61
2023/05/05 09:18:49;;;;;;;10.18;3.00;;;;;;;17.51;71.60;96756.88;2083234;28;20198;-61
2023/05/05 09:20:10;;;;;;;4.93;2.10;;;;;;;17.66;71.56;96749.66;2078405;28;20205;-61
2023/05/05 09:21:23;;;;;;;4.97;2.00;;;;;;;17.91;71.16;96755.81;2062653;28;20223;-61
2023/05/05 09:22:49;;;;;;;11.50;2.00;;;;;;;17.60;72.36;96745.66;2065311;28;20221;-60
2023/05/05 09:25:24;;;;;;;5.35;1.90;;;;;;;17.66;72.67;96741.75;2090292;27;20564;-60
2023/05/05 09:28:16;;;;;;;3.63;2.03;;;;;;;17.91;72.86;96755.81;2084378;28;20554;-61
2023/05/05 10:43:02;;;;;;;13.48;5.93;;;;;;;17.23;75.33;96727.16;2099387;27;20548;-61
2023/05/05 10:44:05;;;;;;;12.02;4.60;;;;;;;17.32;74.74;96722.16;2098101;28;20282;-62
2023/05/05 10:45:07;;;;;;;14.90;5.47;;;;;;;17.50;74.38;96725.31;2093350;28;20241;-61
2023/05/05 10:46:10;;;;;;;10.90;4.88;;;;;;;17.25;74.20;96692.75;2083053;28;20205;-61
2023/05/05 10:47:12;;;;;;;15.25;5.25;;;;;;;17.48;74.58;96728.03;2082063;28;20239;-61
2023/05/05 10:48:20;;;;;;;10.57;4.80;;;;;;;17.49;74.99;96734.19;2078562;28;20197;-62
2023/05/05 10:49:39;;;;;;;13.60;5.05;;;;;;;17.59;74.52;96727.28;2079657;28;20200;-61
2023/05/05 10:50:50;;;;;;;8.88;4.25;;;;;;;17.85;74.52;96728.06;2072870;28;20217;-61
2023/05/05 10:52:10;;;;;;;13.95;5.25;;;;;;;17.88;74.20;96730.47;2072537;28;20236;-61
2023/05/05 10:53:17;;;;;;;8.73;4.82;;;;;;;17.89;73.94;96726.00;2073877;28;20198;-62
2023/05/05 10:54:29;;;;;;;7.00;4.07;;;;;;;17.95;74.28;96715.88;2074749;28;20202;-61
2023/05/05 10:55:43;;;;;;;9.98;4.95;;;;;;;17.90;74.05;96718.00;2069591;28;20667;-61
2023/05/05 10:56:45;;;;;;;13.18;4.60;;;;;;;18.12;73.06;96721.72;2073469;28;20208;-61
2023/05/05 10:57:52;;;;;;;6.68;4.25;;;;;;;18.30;72.67;96716.88;2072695;28;20198;-61
2023/05/05 10:58:54;;;;;;;7.50;3.47;;;;;;;18.48;71.69;96711.16;2073759;28;20193;-61
2023/05/05 11:00:01;;;;;;;9.43;4.00;;;;;;;18.87;70.79;96711.72;2073458;28;20328;-61
2023/05/05 11:01:03;;;;;;;7.20;3.92;;;;;;;18.74;71.11;96702.06;2072236;28;20225;-61
2023/05/05 11:02:24;;;;;;;6.25;3.55;;;;;;;18.81;71.36;96714.84;2073190;28;20698;-61
2023/05/05 11:03:27;;;;;;;9.65;4.30;;;;;;;19.36;69.71;96712.34;2081217;28;20542;-61
2023/05/05 11:04:29;;;;;;;6.28;4.10;;;;;;;19.55;67.92;96709.06;2082231;28;20362;-61
2023/05/05 11:05:31;;;;;;;7.15;3.35;;;;;;;19.60;67.45;96708.72;2080238;28;20227;-61
2023/05/05 11:06:32;;;;;;;7.78;3.28;;;;;;;19.51;66.45;96703.16;2072042;28;20198;-61
2023/05/05 11:07:35;;;;;;;4.65;2.85;;;;;;;19.73;66.19;96699.66;2079175;28;20217;-62
2023/05/05 11:08:37;;;;;;;7.25;3.50;;;;;;;20.04;65.01;96701.63;2079353;28;20283;-61
2023/05/05 11:09:54;;;;;;;5.38;3.55;;;;;;;20.14;65.20;96701.72;2073812;28;20478;-61
2023/05/05 11:10:56;;;;;;;7.57;3.47;;;;;;;20.50;65.02;96708.41;2072847;28;20216;-61
2023/05/05 11:12:02;;;;;;;7.10;3.00;;;;;;;20.13;62.92;96697.41;2071689;28;20233;-61
2023/05/05 11:13:03;;;;;;;7.97;2.95;;;;;;;20.35;62.16;96699.09;2072239;28;20202;-61
2023/05/05 11:14:23;;;;;;;8.35;3.10;;;;;;;20.79;62.60;96702.47;2072397;28;20264;-61
2023/05/05 11:15:30;;;;;;;5.95;3.10;;;;;;;20.74;62.48;96695.91;2071392;28;20712;-61
2023/05/05 11:16:50;;;;;;;11.70;2.80;;;;;;;20.96;61.99;96702.84;2072193;28;20584;-64
2023/05/05 11:17:52;;;;;;;6.65;2.42;;;;;;;21.13;60.54;96701.41;2073655;28;20254;-64
2023/05/05 11:18:54;;;;;;;3.90;1.60;;;;;;;21.27;60.82;96673.63;2073961;28;20270;-64
2023/05/05 11:19:56;;;;;;;4.57;2.55;;;;;;;21.71;59.95;96695.44;2073594;28;20213;-63
2023/05/05 11:20:57;;;;;;;7.40;3.15;;;;;;;21.75;60.05;96698.66;2069310;28;20218;-63
2023/05/05 11:22:00;;;;;;;11.88;3.20;;;;;;;21.54;59.01;96692.44;2072293;28;20194;-63
2023/05/05 11:23:02;;;;;;;7.97;3.33;;;;;;;21.23;60.20;96694.31;2071241;28;20250;-63
2023/05/05 11:24:28;;;;;;;12.05;4.30;;;;;;;21.77;59.03;96691.41;2076717;28;20762;-64
2023/05/05 11:25:39;;;;;;;6.10;3.13;;;;;;;21.18;60.99;96696.53;2075870;28;20261;-64
2023/05/05 11:26:52;;;;;;;10.80;3.88;;;;;;;21.65;59.76;96696.03;2071605;28;20197;-64
2023/05/05 11:28:13;;;;;;;7.22;3.30;;;;;;;21.94;59.02;96685.44;2072639;28;20802;-63
2023/05/05 11:29:14;;;;;;;8.80;2.95;;;;;;;21.66;58.56;96673.75;2072658;28;20202;-61
2023/05/05 11:30:16;;;;;;;6.32;2.60;;;;;;;21.50;58.43;96683.06;2071082;28;20209;-59
2023/05/05 11:31:18;;;;;;;7.47;3.20;;;;;;;20.95;59.44;96678.13;2073258;28;20208;-62
2023/05/05 11:32:20;;;;;;;4.10;2.60;;;;;;;21.66;58.03;96681.72;2072080;28;20262;-62
2023/05/05 11:33:32;;;;;;;4.15;2.00;;;;;;;21.41;57.44;96681.22;2073560;28;20555;-62
2023/05/05 11:34:33;;;;;;;7.90;2.03;;;;;;;21.32;57.69;96671.44;2072189;28;20194;-62
2023/05/05 11:36:11;;;;;;;6.82;2.08;;;;;;;22.35;56.40;96679.97;2074821;28;20220;-62
2023/05/05 11:37:14;;;;;;;3.88;2.28;;;;;;;22.44;54.33;96684.47;2059787;28;20206;-62
2023/05/05 11:38:17;;;;;;;4.85;2.50;;;;;;;22.49;55.49;96678.72;2070274;28;20775;-63
2023/05/05 11:39:22;;;;;;;6.63;2.70;;;;;;;22.15;56.54;96679.13;2072786;28;20194;-63
2023/05/05 11:40:31;;;;;;;5.47;2.50;;;;;;;22.07;56.24;96676.31;2072968;28;20329;-61
2023/05/05 11:41:40;;;;;;;4.30;2.20;;;;;;;21.75;56.01;96674.75;2074024;28;20664;-62
2023/05/05 11:42:42;;;;;;;7.53;2.13;;;;;;;22.01;56.01;96672.41;2072573;28;20288;-62
2023/05/05 11:43:43;;;;;;;4.35;1.75;;;;;;;21.75;55.73;96674.75;2072634;28;20201;-61
2023/05/05 11:44:45;;;;;;;8.45;3.72;;;;;;;21.48;56.08;96674.41;2075196;28;20559;-62
2023/05/05 11:45:46;;;;;;;8.80;1.73;;;;;;;21.15;56.57;96667.59;2071854;28;20225;-62
2023/05/05 11:46:51;;;;;;;4.82;1.50;;;;;;;21.01;57.56;96674.09;2072793;28;20739;-61
2023/05/05 11:48:27;;;;;;;2.95;1.20;;;;;;;20.96;56.33;96671.00;2074747;28;20224;-62
2023/05/05 11:49:33;;;;;;;5.10;1.60;;;;;;;20.55;57.94;96668.25;2073070;28;20695;-61
2023/05/05 11:50:35;;;;;;;4.70;1.90;;;;;;;20.41;58.83;96666.75;2072817;28;20706;-62
2023/05/05 11:51:37;;;;;;;8.40;2.03;;;;;;;20.74;58.96;96672.03;2072672;28;20649;-62
2023/05/05 11:52:38;;;;;;;2.90;1.80;;;;;;;20.79;58.74;96670.63;2071250;28;20193;-61
2023/05/05 11:53:45;;;;;;;9.82;2.15;;;;;;;21.48;57.83;96662.94;2073232;28;20201;-61
2023/05/05 11:54:47;;;;;;;9.35;2.15;;;;;;;21.68;58.54;96669.16;2071021;28;20284;-61
2023/05/05 11:56:04;;;;;;;4.18;2.25;;;;;;;21.64;57.72;96654.47;2064151;28;20222;-62
2023/05/05 11:57:07;;;;;;;4.88;2.28;;;;;;;21.80;57.93;96665.41;2063987;28;20626;-61
2023/05/05 11:58:19;;;;;;;4.80;2.13;;;;;;;22.13;57.93;96662.47;2064554;28;20294;-62
2023/05/05 11:59:21;;;;;;;6.50;2.15;;;;;;;21.88;57.94;96659.41;2065946;28;20199;-65
2023/05/05 12:00:32;;;;;;;5.65;1.88;;;;;;;22.25;56.73;96661.34;2063511;28;20428;-65
2023/05/05 12:01:38;;;;;;;5.38;2.28;;;;;;;22.03;57.01;96657.16;2067693;28;20289;-62
2023/05/05 12:02:40;;;;;;;11.73;7.43;;;;;;;22.38;56.98;96658.41;2065903;28;20691;-65
2023/05/05 12:03:44;;;;;;;22.27;14.50;;;;;;;22.26;57.31;96657.72;2065039;28;20195;-64
2023/05/05 12:04:46;;;;;;;21.70;11.70;;;;;;;22.16;55.95;96659.53;2063990;28;20905;-64
2023/05/05 12:05:47;;;;;;;10.05;6.25;;;;;;;22.20;54.85;96655.63;2070671;28;20288;-65
2023/05/05 12:06:49;;;;;;;4.85;3.75;;;;;;;22.09;54.46;96651.25;2067728;28;20201;-63
2023/05/05 12:07:56;;;;;;;4.97;2.83;;;;;;;22.28;54.42;96653.09;2065942;28;20198;-64
2023/05/05 12:08:58;;;;;;;4.55;2.30;;;;;;;22.46;55.02;96649.72;2066376;28;20210;-65
2023/05/05 12:10:00;;;;;;;5.20;1.65;;;;;;;22.56;54.89;96647.06;2067196;28;20206;-65
2023/05/05 12:11:06;;;;;;;3.25;1.73;;;;;;;22.40;55.46;96661.78;2066713;28;20724;-65
2023/05/05 12:12:07;;;;;;;6.15;1.90;;;;;;;22.36;55.34;96655.06;2065898;28;20209;-65
2023/05/05 12:13:19;;;;;;;3.05;1.88;;;;;;;22.57;56.02;96648.75;2067012;28;20229;-65
2023/05/05 12:14:21;;;;;;;6.25;1.90;;;;;;;22.40;54.25;96650.28;2067243;28;20202;-65
2023/05/05 12:15:32;;;;;;;3.78;1.48;;;;;;;22.96;53.71;96651.28;2067489;28;20199;-65
2023/05/05 12:16:33;;;;;;;7.80;2.10;;;;;;;22.55;53.70;96651.53;2066119;28;20209;-65
2023/05/05 12:17:37;;;;;;;7.00;1.98;;;;;;;22.62;55.32;96655.28;2066414;28;20260;-65
2023/05/05 12:18:39;;;;;;;4.32;1.35;;;;;;;22.75;54.40;96644.31;2066951;28;20205;-65
2023/05/05 12:19:52;;;;;;;5.22;1.80;;;;;;;23.04;54.09;96647.88;2066389;28;20206;-65
2023/05/05 12:20:53;;;;;;;6.68;1.83;;;;;;;22.78;53.52;96648.56;2067121;28;20677;-65
2023/05/05 12:21:55;;;;;;;3.20;1.85;;;;;;;22.76;53.57;96640.69;2067656;28;20202;-65
2023/05/05 12:23:02;;;;;;;4.30;1.75;;;;;;;23.07;53.40;96639.59;2065374;28;20199;-65
2023/05/05 12:24:05;;;;;;;3.42;2.10;;;;;;;23.47;53.36;96638.44;2066019;28;20194;-65
2023/05/05 12:25:07;;;;;;;5.18;2.05;;;;;;;23.59;53.17;96645.25;2063590;28;20710;-65
2023/05/05 12:26:25;;;;;;;4.30;2.20;;;;;;;23.25;54.14;96631.69;2065106;28;20237;-65
2023/05/05 12:27:27;;;;;;;8.73;2.65;;;;;;;23.54;53.46;96630.69;2066350;28;20214;-65
2023/05/05 12:28:43;;;;;;;8.32;2.00;;;;;;;23.89;52.83;96635.19;2066994;28;20668;-65
2023/05/05 12:29:44;;;;;;;14.10;2.60;;;;;;;24.49;52.25;96631.03;2067266;28;20725;-65
2023/05/05 12:30:56;;;;;;;13.90;2.00;;;;;;;24.80;52.03;96632.44;2067743;28;20595;-65
2023/05/05 12:31:59;;;;;;;16.10;2.40;;;;;;;24.82;52.80;96623.28;2064272;28;20218;-65
2023/05/05 12:33:05;;;;;;;8.32;1.90;;;;;;;25.07;50.83;96624.22;2065551;28;20210;-65
2023/05/05 12:34:10;;;;;;;9.02;2.25;;;;;;;25.16;51.09;96624.28;2068250;28;20229;-65
2023/05/05 12:35:12;;;;;;;12.02;2.40;;;;;;;24.54;49.72;96626.06;2067272;28;20198;-65
2023/05/05 12:36:14;;;;;;;11.50;2.00;;;;;;;23.92;51.55;96621.63;2065635;28;20214;-65
2023/05/05 12:37:17;;;;;;;3.00;1.75;;;;;;;24.52;51.06;96628.09;2068757;28;20193;-65
2023/05/05 12:38:19;;;;;;;3.45;1.75;;;;;;;24.71;51.65;96620.88;2067934;28;20584;-65
2023/05/05 12:39:21;;;;;;;9.95;1.75;;;;;;;24.35;50.62;96620.94;2066836;28;20705;-65
2023/05/05 12:40:46;;;;;;;8.68;2.50;;;;;;;23.80;50.93;96617.47;2065991;28;20289;-65
2023/05/05 12:41:48;;;;;;;7.35;1.75;;;;;;;24.15;51.29;96613.16;2066872;28;20203;-65
2023/05/05 12:42:52;;;;;;;12.20;2.50;;;;;;;24.17;51.26;96611.16;2067331;28;20885;-65
2023/05/05 12:43:55;;;;;;;10.35;1.98;;;;;;;24.02;51.49;96615.34;2063842;28;20685;-66
2023/05/05 12:44:57;;;;;;;4.63;2.25;;;;;;;23.48;52.73;96608.97;2064946;28;20732;-66
2023/05/05 12:46:00;;;;;;;5.80;3.25;;;;;;;23.13;51.55;96612.38;2065222;28;20222;-65
2023/05/05 12:47:02;;;;;;;5.15;2.17;;;;;;;23.53;51.86;96610.34;2066889;28;20205;-65
2023/05/05 12:48:21;;;;;;;10.32;2.47;;;;;;;22.98;52.61;96602.22;2067886;28;20206;-65
2023/05/05 12:49:23;;;;;;;9.48;2.22;;;;;;;23.56;51.90;96604.75;2065628;28;20198;-65
2023/05/05 12:50:31;;;;;;;8.07;1.70;;;;;;;23.79;51.58;96608.66;2067599;28;20232;-67
2023/05/05 12:51:34;;;;;;;5.75;1.70;;;;;;;24.02;51.03;96608.19;2068189;28;20641;-66
2023/05/05 12:52:43;;;;;;;6.45;2.05;;;;;;;24.18;49.72;96601.34;2066979;28;20285;-66
2023/05/05 12:53:46;;;;;;;6.35;1.50;;;;;;;24.26;49.22;96596.91;2067454;28;20500;-67
2023/05/05 12:54:55;;;;;;;8.00;2.20;;;;;;;24.34;49.87;96598.78;2068072;28;20236;-66
2023/05/05 12:55:57;;;;;;;10.88;1.90;;;;;;;24.15;49.91;96599.81;2067497;28;20218;-66
2023/05/05 12:57:09;;;;;;;9.18;1.80;;;;;;;23.81;48.41;96582.66;2058431;28;20201;-67
2023/05/05 12:58:11;;;;;;;8.40;2.08;;;;;;;23.57;49.86;96593.09;2067249;28;20276;-67
2023/05/05 12:59:21;;;;;;;4.53;1.30;;;;;;;23.97;50.39;96597.13;2067251;28;20201;-66
2023/05/05 13:00:23;;;;;;;4.63;1.77;;;;;;;24.23;50.33;96591.84;2066669;28;20209;-67
2023/05/05 13:01:26;;;;;;;8.27;1.60;;;;;;;24.29;50.28;96590.41;2067938;28;20204;-66
2023/05/05 13:02:34;;;;;;;3.40;1.30;;;;;;;24.22;48.92;96595.50;2067145;28;20213;-67
2023/05/05 13:03:35;;;;;;;2.25;1.20;;;;;;;24.05;48.55;96588.38;2069724;28;20300;-67
2023/05/05 13:04:49;;;;;;;4.47;1.27;;;;;;;24.04;48.70;96600.06;2070627;28;20202;-66
2023/05/05 13:05:50;;;;;;;3.95;1.30;;;;;;;23.81;49.64;96593.31;2066011;28;20217;-65
2023/05/05 13:07:13;;;;;;;4.93;1.45;;;;;;;23.60;50.46;96587.44;2075417;28;20236;-66
2023/05/05 13:08:14;;;;;;;12.82;6.45;;;;;;;23.66;49.52;96583.34;2070682;28;20243;-66
2023/05/05 13:09:26;;;;;;;18.90;10.30;;;;;;;23.55;49.81;96593.22;2066199;28;20353;-66
2023/05/05 13:10:29;;;;;;;90.07;62.10;;;;;;;23.77;49.38;96585.78;2065242;28;20329;-66
2023/05/05 13:11:38;;;;;;;9.90;4.88;;;;;;;23.69;51.54;96593.69;2067322;28;20575;-67
2023/05/05 13:12:39;;;;;;;8.75;1.75;;;;;;;23.60;50.39;96588.31;2065585;28;20205;-67
2023/05/05 13:13:41;;;;;;;3.10;1.55;;;;;;;23.40;50.52;96584.06;2067188;28;20202;-67
2023/05/05 13:14:43;;;;;;;3.17;1.30;;;;;;;23.38;50.90;96575.41;2063824;28;20202;-66
2023/05/05 13:15:45;;;;;;;4.05;1.63;;;;;;;23.22;51.23;96587.53;2063893;28;20222;-67
2023/05/05 13:16:46;;;;;;;8.88;2.30;;;;;;;23.24;50.60;96588.25;2067575;28;20275;-66
2023/05/05 13:17:48;;;;;;;5.38;1.70;;;;;;;23.46;50.87;96589.66;2067691;28;20244;-66
2023/05/05 13:18:50;;;;;;;3.67;1.92;;;;;;;22.63;51.73;96563.03;2068479;28;20201;-63
2023/05/05 13:19:51;;;;;;;6.97;1.30;;;;;;;22.53;52.81;96586.16;2067530;28;20260;-64
2023/05/05 13:20:53;;;;;;;3.25;1.85;;;;;;;22.96;52.51;96588.22;2054516;28;20223;-64
2023/05/05 13:21:55;;;;;;;3.72;1.63;;;;;;;23.23;52.92;96570.59;2058440;28;20206;-64
2023/05/05 13:22:57;;;;;;;3.05;1.52;;;;;;;23.39;53.00;96569.06;2063598;28;20210;-63
2023/05/05 13:23:58;;;;;;;5.97;1.80;;;;;;;23.15;53.31;96570.50;2064311;28;20210;-63
2023/05/05 13:25:19;;;;;;;10.18;1.60;;;;;;;23.03;53.72;96580.47;2063377;28;20202;-63
2023/05/05 13:26:21;;;;;;;3.78;1.75;;;;;;;22.99;54.34;96579.09;2065593;28;20198;-64
2023/05/05 13:27:22;;;;;;;5.05;1.65;;;;;;;22.97;53.95;96567.78;2066796;28;20847;-64
2023/05/05 13:28:24;;;;;;;14.10;2.15;;;;;;;23.12;53.43;96581.41;2065387;28;20228;-64
2023/05/05 13:29:26;;;;;;;3.88;2.00;;;;;;;23.06;53.56;96569.53;2064866;28;20253;-63
2023/05/05 13:30:31;;;;;;;10.35;1.50;;;;;;;23.26;54.68;96559.66;2064084;28;20234;-64
2023/05/05 13:31:33;;;;;;;6.07;1.83;;;;;;;23.50;53.80;96565.38;2063633;28;20814;-63
2023/05/05 13:32:34;;;;;;;3.72;2.17;;;;;;;23.40;52.94;96560.09;2064186;28;20225;-63
2023/05/05 13:33:37;;;;;;;3.05;1.75;;;;;;;23.04;53.63;96557.38;2065716;28;20198;-63
2023/05/05 13:34:38;;;;;;;2.95;1.38;;;;;;;22.99;54.47;96558.66;2063392;28;20202;-63
2023/05/05 13:35:40;;;;;;;4.38;1.75;;;;;;;22.62;55.84;96554.19;2063604;28;20225;-64
2023/05/05 13:36:41;;;;;;;5.65;1.90;;;;;;;22.68;56.72;96552.78;2066068;28;20202;-64
2023/05/05 13:37:44;;;;;;;4.18;1.70;;;;;;;22.20;58.11;96546.59;2065602;28;20228;-63
2023/05/05 13:38:46;;;;;;;11.80;1.80;;;;;;;21.88;59.35;96549.56;2068604;28;20209;-63
2023/05/05 13:39:47;;;;;;;4.22;1.98;;;;;;;21.95;59.76;96548.03;2066240;28;20240;-63
2023/05/05 13:40:48;;;;;;;7.60;1.90;;;;;;;21.83;59.85;96531.41;2059670;28;20337;-63
2023/05/05 13:41:50;;;;;;;9.00;1.70;;;;;;;21.83;60.03;96531.41;2065475;28;20225;-63
2023/05/05 13:42:52;;;;;;;6.35;1.95;;;;;;;21.99;59.65;96544.09;2068634;28;20685;-62
2023/05/05 13:43:55;;;;;;;12.13;2.90;;;;;;;21.87;60.06;96545.25;2067814;28;20720;-63
2023/05/05 13:44:57;;;;;;;14.95;2.25;;;;;;;21.32;61.17;96539.47;2070156;28;20708;-64
2023/05/05 13:45:58;;;;;;;7.07;1.58;;;;;;;21.46;60.97;96532.94;2066409;28;20218;-63
2023/05/05 13:47:19;;;;;;;3.03;1.60;;;;;;;21.66;60.69;96530.28;2074410;28;20768;-63
2023/05/05 13:48:21;;;;;;;5.32;2.33;;;;;;;21.49;61.42;96526.50;2072241;28;20541;-63
2023/05/05 13:49:22;;;;;;;5.88;1.90;;;;;;;21.44;61.96;96528.72;2066325;28;20186;-63
2023/05/05 13:50:24;;;;;;;4.20;1.70;;;;;;;21.45;61.82;96517.13;2066549;28;20235;-63
2023/05/05 13:51:26;;;;;;;7.00;2.22;;;;;;;21.49;61.89;96524.66;2068846;28;20193;-63
2023/05/05 13:52:28;;;;;;;3.85;1.95;;;;;;;20.85;62.84;96523.34;2066146;28;20225;-62
2023/05/05 13:53:38;;;;;;;13.38;2.85;;;;;;;20.85;62.83;96520.69;2066314;28;20205;-63
2023/05/05 13:54:40;;;;;;;8.27;2.03;;;;;;;21.00;62.63;96521.97;2065278;28;20195;-62
2023/05/05 13:55:42;;;;;;;5.78;2.22;;;;;;;21.12;62.61;96527.16;2066684;28;20273;-62
2023/05/05 13:56:43;;;;;;;6.22;2.45;;;;;;;21.18;62.73;96518.66;2066795;28;20834;-62
2023/05/05 13:57:45;;;;;;;15.48;2.33;;;;;;;21.13;62.95;96513.75;2064089;28;20334;-62
2023/05/05 13:58:46;;;;;;;7.30;1.80;;;;;;;21.17;63.30;96514.31;2064014;28;20201;-63
2023/05/05 13:59:48;;;;;;;5.88;2.20;;;;;;;21.12;63.25;96514.72;2066051;28;20199;-63
2023/05/05 14:00:49;;;;;;;6.00;2.83;;;;;;;21.06;63.35;96511.78;2063701;28;20222;-63
2023/05/05 14:01:51;;;;;;;7.82;2.10;;;;;;;21.09;63.85;96516.81;2070622;28;20236;-62
2023/05/05 14:07:54;;;;;;;5.10;1.70;;;;;;;20.75;64.27;96502.09;2085868;28;20561;-61
2023/05/05 14:10:39;;;;;;;6.50;2.83;;;;;;;20.60;64.60;96498.94;2082231;28;20574;-61
2023/05/05 14:11:41;;;;;;;7.57;1.92;;;;;;;20.55;64.37;96501.16;2082305;28;20188;-61
2023/05/05 14:12:43;;;;;;;7.60;2.30;;;;;;;20.73;64.03;96509.31;2082772;28;20208;-61
2023/05/05 14:13:45;;;;;;;3.83;1.80;;;;;;;20.73;63.83;96503.19;2082665;28;20295;-61
2023/05/05 14:14:46;;;;;;;7.35;2.53;;;;;;;20.54;63.93;96508.28;2079807;28;20717;-61
2023/05/05 14:15:49;;;;;;;4.63;2.20;;;;;;;20.74;63.52;96513.66;2084834;28;20224;-61
2023/05/05 14:16:51;;;;;;;10.55;2.88;;;;;;;20.69;63.49;96511.38;2084261;28;20631;-61
2023/05/05 14:17:52;;;;;;;3.97;2.00;;;;;;;20.59;64.46;96501.72;2083073;28;20207;-61
2023/05/05 14:18:54;;;;;;;8.65;2.33;;;;;;;20.69;64.10;96505.25;2080518;28;20311;-61
2023/05/05 14:19:55;;;;;;;4.65;2.22;;;;;;;20.48;64.23;96516.75;2080603;28;20903;-61
2023/05/05 14:20:57;;;;;;;3.85;1.80;;;;;;;20.60;64.83;96506.06;2080596;28;20249;-62
2023/05/05 14:21:58;;;;;;;7.18;2.40;;;;;;;20.59;64.19;96517.63;2081512;28;20200;-61
2023/05/05 14:22:59;;;;;;;10.38;2.90;;;;;;;20.70;64.29;96525.50;2081735;28;20239;-61
2023/05/05 14:24:01;;;;;;;6.90;3.08;;;;;;;20.70;63.68;96522.84;2078486;28;20197;-61
2023/05/05 14:28:45;;;;;;;6.38;2.10;;;;;;;20.47;64.17;96516.91;2099927;27;20962;-61
2023/05/05 14:32:45;;;;;;;7.13;2.35;;;;;;;20.45;64.32;96513.53;2082308;28;20560;-61
2023/05/05 14:35:58;;;;;;;5.28;2.10;;;;;;;20.53;65.83;96501.28;2099573;27;20568;-61
2023/05/05 14:37:00;;;;;;;9.63;1.65;;;;;;;20.64;66.14;96502.16;2102884;28;20248;-62
2023/05/05 14:38:01;;;;;;;7.50;2.60;;;;;;;20.65;66.94;96487.91;2103960;28;20191;-61
2023/05/05 14:41:36;;;;;;;11.00;2.17;;;;;;;20.48;69.17;96505.28;2084405;28;20573;-61
2023/05/05 14:44:58;;;;;;;8.02;2.55;;;;;;;20.23;71.04;96512.75;2085579;28;21054;-60
2023/05/05 14:48:16;;;;;;;6.95;2.30;;;;;;;20.30;70.79;96503.28;2082033;28;20581;-61
2023/05/05 16:49:32;;;;;;;5.50;2.42;;;;;;;15.48;95.38;96586.00;2084734;28;20564;-72
2023/05/05 16:52:03;;;;;;;4.20;2.30;;;;;;;15.39;94.32;96581.38;2091472;27;20562;-70
2023/05/05 16:54:42;;;;;;;8.70;2.92;;;;;;;15.39;93.21;96565.56;2133482;27;21097;-70
2023/05/05 17:01:19;;;;;;;5.72;2.35;;;;;;;15.79;92.26;96572.63;2092993;28;20567;-72
